Arrowsmith, IL

6:48 PM CDT on September 02, 2014 (GMT -0500)
Rural Cooksville | Change Station
CLOSE
Current Station
Personal Weather Station
Location: Cooksville, IL
Elevation: 801 ft
Nearby Weather Stations

Elev 801 ft 40.52 °N, 88.72 °W | Updated 2 minutes ago

Partly Cloudy
Partly Cloudy
75.9 °F
Feels Like 77 °F
N
0.0
Wind Variable Wind from West
Gusts 1.0 mph

Today
High -- | Low -- °F
--% Chance of Precip.
Yesterday
High -- | Low -- °F
Precip. -- in
6:22 AM 7:24 PM
First Quarter, 56% visible
Pressure 29.90 in
Visibility 10.0 miles
Clouds Few 4700 ft
Heat Index 77 °F
Dew Point 68 °F
Humidity 76%
Rainfall 0.00 in
Snow Depth Not available.
UV 1 out of 12
Pollen 3.50 out of 12
Air Quality Not available.
Flu Activity Not available.
METAR KBMI 022256Z 27007KT 10SM FEW047 26/16 A2993 RMK AO2 T02610161 SLP125

More Conditions Fewer Conditions

Pressure 29.90 in
Visibility 10.0 miles
Clouds Few 4700 ft
Heat Index 77 °F
Dew Point 68 °F
Humidity 76%
Rainfall 0.00 in
Snow Depth Not available.
UV 1 out of 12
Pollen 3.50 out of 12
Air Quality Not available.
Flu Activity Not available.
METAR KBMI 022256Z 27007KT 10SM FEW047 26/16 A2993 RMK AO2 T02610161 SLP125

More Conditions Fewer Conditions

10-Day Weather Forecast

Almanac

Astronomy

Sep. 02, 2014 Rise Set
Actual Time 6:22 AM CDT 7:24 PM CDT
Civil Twilight 5:54 AM CDT 7:52 PM CDT
Nautical Twilight 5:21 AM CDT 8:25 PM CDT
Astronomical Twilight 4:46 AM CDT 9:00 PM CDT
Moon 2:08 PM CDT No Moon Set
Length of Visible Light 13h 57m
Length of Day
13h 02m
Tomorrow will be 2m 35s shorter.
First Quarter, 56% of the Moon is Illuminated
Today
First Quarter
Sep 8
Full
Sep 15
Last Quarter
Sep 24
New
Oct 1
First Quarter

Today's Extremes

State Highs State Lows

Community

WunderPhotos

Upload Photos

1,749,799 photos uploaded!

Nearby

Snow Depth

Station Depth Elevation
No new snow has been reported.

Earthquake Activity

City Distance Mag. Time & Date
No recent earthquake activity has been reported nearby.
Minimum magnitude displayed is 2.5.

Coastal Water Temperatures

Place Temperature
No Stations Reporting

Nearby Weather Stations